createdAt,value
2023-08-14T00:00:23.418Z,0.00
2023-08-14T00:01:23.509Z,0.00
2023-08-14T00:02:23.495Z,0.00
2023-08-14T00:03:23.556Z,0.00
2023-08-14T00:04:23.527Z,0.00
2023-08-14T00:05:23.551Z,0.00
2023-08-14T00:06:23.588Z,0.00
2023-08-14T00:07:23.609Z,0.00
2023-08-14T00:08:23.628Z,0.00
2023-08-14T00:09:23.663Z,0.00
2023-08-14T00:10:23.685Z,0.00
2023-08-14T00:11:23.710Z,0.00
2023-08-14T00:12:23.737Z,0.00
2023-08-14T00:13:23.762Z,0.00
2023-08-14T00:14:23.795Z,0.00
2023-08-14T00:15:23.852Z,0.00
2023-08-14T00:16:23.850Z,0.00
2023-08-14T00:17:23.870Z,0.00
2023-08-14T00:18:23.897Z,0.00
2023-08-14T00:19:23.930Z,0.00
2023-08-14T00:20:23.950Z,0.00
2023-08-14T00:21:23.985Z,0.00
2023-08-14T00:22:24.010Z,0.00
2023-08-14T00:23:24.033Z,0.00
2023-08-14T00:24:24.062Z,0.00
2023-08-14T00:25:24.108Z,0.00
2023-08-14T00:26:24.122Z,0.00
2023-08-14T00:27:24.139Z,0.00
2023-08-14T00:28:24.166Z,0.00
2023-08-14T00:29:24.199Z,0.00
2023-08-14T00:30:24.221Z,0.00
2023-08-14T00:31:24.286Z,0.00
2023-08-14T00:32:24.271Z,0.00
2023-08-14T00:33:24.301Z,0.00
2023-08-14T00:34:24.322Z,0.00
2023-08-14T00:35:24.348Z,0.00
2023-08-14T00:36:24.382Z,0.00
2023-08-14T00:37:24.414Z,0.00
2023-08-14T00:38:24.439Z,0.00
2023-08-14T00:39:24.457Z,0.00
2023-08-14T00:40:24.483Z,0.00
2023-08-14T00:41:24.518Z,0.00
2023-08-14T00:42:24.538Z,0.00
2023-08-14T00:43:24.581Z,0.00
2023-08-14T00:44:24.591Z,0.00
2023-08-14T00:45:33.004Z,0.00
2023-08-14T00:46:24.697Z,0.00
2023-08-14T00:47:24.670Z,0.00
2023-08-14T00:48:24.710Z,0.00
2023-08-14T00:49:24.733Z,0.00
2023-08-14T00:50:24.748Z,0.00
2023-08-14T00:51:24.801Z,0.00
2023-08-14T00:52:24.804Z,0.00
2023-08-14T00:53:24.828Z,0.00
2023-08-14T00:54:24.863Z,0.00
2023-08-14T00:55:24.881Z,0.00
2023-08-14T00:56:24.936Z,0.00
2023-08-14T00:57:24.939Z,0.00
2023-08-14T00:58:24.965Z,0.00
2023-08-14T00:59:24.997Z,0.00
2023-08-14T01:00:25.045Z,0.00
2023-08-14T01:01:25.046Z,0.00
2023-08-14T01:02:25.120Z,0.00
2023-08-14T01:03:25.139Z,0.00
2023-08-14T01:04:25.125Z,0.00
2023-08-14T01:05:25.150Z,0.00
2023-08-14T01:06:25.176Z,0.00
2023-08-14T01:07:25.202Z,0.00
2023-08-14T01:08:25.231Z,0.00
2023-08-14T01:09:25.258Z,0.00
2023-08-14T01:10:25.292Z,0.00
2023-08-14T01:11:25.309Z,0.00
2023-08-14T01:12:25.351Z,0.00
2023-08-14T01:13:25.365Z,0.00
2023-08-14T01:14:25.390Z,0.00
2023-08-14T01:15:25.417Z,0.00
2023-08-14T01:16:25.478Z,0.00
2023-08-14T01:17:25.518Z,0.00
2023-08-14T01:18:25.531Z,0.00
2023-08-14T01:19:25.527Z,0.00
2023-08-14T01:20:25.548Z,0.00
2023-08-14T01:21:25.583Z,0.00
2023-08-14T01:22:25.628Z,0.00
2023-08-14T01:23:25.628Z,0.00
2023-08-14T01:24:25.656Z,0.00
2023-08-14T01:25:25.701Z,0.00
2023-08-14T01:26:25.728Z,0.00
2023-08-14T01:27:25.744Z,0.00
2023-08-14T01:28:25.760Z,0.00
2023-08-14T01:29:25.805Z,0.00
2023-08-14T01:30:25.865Z,0.00
2023-08-14T01:31:25.839Z,0.00
2023-08-14T01:32:25.868Z,0.00
2023-08-14T01:33:25.892Z,0.00
2023-08-14T01:34:25.926Z,0.00
2023-08-14T01:35:25.969Z,0.00
2023-08-14T01:36:25.976Z,0.00
2023-08-14T01:37:25.996Z,0.00
2023-08-14T01:38:26.063Z,0.00
2023-08-14T01:39:26.053Z,0.00
2023-08-14T01:40:26.137Z,0.00
2023-08-14T01:41:26.107Z,0.00
2023-08-14T01:42:26.216Z,0.00
2023-08-14T01:43:26.158Z,0.00
2023-08-14T01:44:26.181Z,0.00
2023-08-14T01:45:26.204Z,0.00
2023-08-14T01:46:26.269Z,0.00
2023-08-14T01:47:26.283Z,0.00
2023-08-14T01:48:26.287Z,0.00
2023-08-14T01:49:26.319Z,0.00
2023-08-14T01:50:26.344Z,0.00
2023-08-14T01:51:26.369Z,0.00
2023-08-14T01:52:26.401Z,0.00
2023-08-14T01:53:26.419Z,0.00
2023-08-14T01:54:26.448Z,0.00
2023-08-14T01:55:26.481Z,0.00
2023-08-14T01:56:26.495Z,0.00
2023-08-14T01:57:26.527Z,0.00
2023-08-14T01:58:26.554Z,0.00
2023-08-14T01:59:26.577Z,0.00
2023-08-14T02:00:26.644Z,0.00
2023-08-14T02:01:26.708Z,0.00
2023-08-14T02:02:26.673Z,0.00
2023-08-14T02:03:26.768Z,0.00
2023-08-14T02:04:26.706Z,0.00
2023-08-14T02:05:26.750Z,0.00
2023-08-14T02:06:26.772Z,0.00
2023-08-14T02:07:26.786Z,0.00
2023-08-14T02:08:26.812Z,0.00
2023-08-14T02:09:26.836Z,0.00
2023-08-14T02:10:26.863Z,0.00
2023-08-14T02:11:26.889Z,0.00
2023-08-14T02:12:26.929Z,0.00
2023-08-14T02:13:26.954Z,0.00
2023-08-14T02:14:26.978Z,0.00
2023-08-14T02:15:27.010Z,0.00
2023-08-14T02:16:27.103Z,0.00
2023-08-14T02:17:27.077Z,0.00
2023-08-14T02:18:27.088Z,0.00
2023-08-14T02:19:27.104Z,0.00
2023-08-14T02:20:27.158Z,0.00
2023-08-14T02:21:27.158Z,0.00
2023-08-14T02:22:27.200Z,0.00
2023-08-14T02:23:27.205Z,0.00
2023-08-14T02:24:27.283Z,0.00
2023-08-14T02:25:27.315Z,0.00
2023-08-14T02:26:27.313Z,0.00
2023-08-14T02:27:27.331Z,0.00
2023-08-14T02:28:27.342Z,0.00
2023-08-14T02:29:27.367Z,0.00
2023-08-14T02:30:27.392Z,0.00
2023-08-14T02:31:27.478Z,0.00
2023-08-14T02:32:27.459Z,0.00
2023-08-14T02:33:27.476Z,0.00
2023-08-14T02:34:27.497Z,0.00
2023-08-14T02:35:27.526Z,0.00
2023-08-14T02:36:27.548Z,0.00
2023-08-14T02:37:27.582Z,0.00
2023-08-14T02:38:27.613Z,0.00
2023-08-14T02:39:27.628Z,0.00
2023-08-14T02:40:27.654Z,0.00
2023-08-14T02:41:27.683Z,0.00
2023-08-14T02:42:27.708Z,0.00
2023-08-14T02:43:27.733Z,0.00
2023-08-14T02:44:27.760Z,0.00
2023-08-14T02:45:27.834Z,0.00
2023-08-14T02:46:27.814Z,0.00
2023-08-14T02:47:27.882Z,0.00
2023-08-14T02:48:27.861Z,0.00
2023-08-14T02:49:27.893Z,0.00
2023-08-14T02:50:27.913Z,0.00
2023-08-14T02:51:27.940Z,0.00
2023-08-14T02:52:27.967Z,0.00
2023-08-14T02:53:27.998Z,0.00
2023-08-14T02:54:28.015Z,0.00
2023-08-14T02:55:28.038Z,0.00
2023-08-14T02:56:28.073Z,0.00
2023-08-14T02:57:28.104Z,0.00
2023-08-14T02:58:28.121Z,0.00
2023-08-14T02:59:28.148Z,0.00
2023-08-14T03:00:28.172Z,0.00
2023-08-14T03:01:28.229Z,0.00
2023-08-14T03:02:28.267Z,0.00
2023-08-14T03:03:28.260Z,0.00
2023-08-14T03:04:28.277Z,0.00
2023-08-14T03:05:28.324Z,0.00
2023-08-14T03:06:28.328Z,0.00
2023-08-14T03:07:28.353Z,0.00
2023-08-14T03:08:28.385Z,0.00
2023-08-14T03:09:28.406Z,0.00
2023-08-14T03:10:28.430Z,0.00
2023-08-14T03:11:28.468Z,0.00
2023-08-14T03:12:28.486Z,0.00
2023-08-14T03:13:28.515Z,0.00
2023-08-14T03:14:28.542Z,0.00
2023-08-14T03:15:28.559Z,0.00
2023-08-14T03:16:28.610Z,0.00
2023-08-14T03:17:28.652Z,0.00
2023-08-14T03:18:28.650Z,0.00
2023-08-14T03:19:28.693Z,0.00
2023-08-14T03:20:28.691Z,0.00
2023-08-14T03:21:28.729Z,0.00
2023-08-14T03:22:28.751Z,0.00
2023-08-14T03:23:28.780Z,0.00
2023-08-14T03:24:28.795Z,0.00
2023-08-14T03:25:28.826Z,0.00
2023-08-14T03:26:28.852Z,0.00
2023-08-14T03:27:28.880Z,0.00
2023-08-14T03:28:28.906Z,0.00
2023-08-14T03:29:28.931Z,0.00
2023-08-14T03:30:28.956Z,4.00
2023-08-14T03:31:28.988Z,4.00
2023-08-14T03:32:29.017Z,0.00
2023-08-14T03:33:29.029Z,0.00
2023-08-14T03:34:29.062Z,4.00
2023-08-14T03:35:29.086Z,0.00
2023-08-14T03:36:29.109Z,4.00
2023-08-14T03:37:29.134Z,4.00
2023-08-14T03:38:29.160Z,8.00
2023-08-14T03:39:29.184Z,8.00
2023-08-14T03:40:29.219Z,8.00
2023-08-14T03:41:29.240Z,12.00
2023-08-14T03:42:29.266Z,8.00
2023-08-14T03:43:29.295Z,12.00
2023-08-14T03:44:29.316Z,16.00
2023-08-14T03:45:29.339Z,16.00
2023-08-14T03:46:29.419Z,20.00
2023-08-14T03:47:29.408Z,24.00
2023-08-14T03:48:29.416Z,24.00
2023-08-14T03:49:29.441Z,28.00
2023-08-14T03:50:29.474Z,36.00
2023-08-14T03:51:29.491Z,40.00
2023-08-14T03:52:29.523Z,44.00
2023-08-14T03:53:29.545Z,52.00
2023-08-14T03:54:29.579Z,60.00
2023-08-14T03:55:29.598Z,64.00
2023-08-14T03:56:29.624Z,76.00
2023-08-14T03:57:29.652Z,84.00
2023-08-14T03:58:29.672Z,96.00
2023-08-14T03:59:29.698Z,108.00
2023-08-14T04:00:29.722Z,120.00
2023-08-14T04:01:29.796Z,136.00
2023-08-14T04:02:29.800Z,148.00
2023-08-14T04:03:29.867Z,164.00
2023-08-14T04:04:29.826Z,188.00
2023-08-14T04:05:29.851Z,204.00
2023-08-14T04:06:29.989Z,220.00
2023-08-14T04:07:29.904Z,244.00
2023-08-14T04:08:29.932Z,268.00
2023-08-14T04:09:29.962Z,288.00
2023-08-14T04:10:29.993Z,308.00
2023-08-14T04:11:30.018Z,328.00
2023-08-14T04:12:30.039Z,352.00
2023-08-14T04:13:30.060Z,376.00
2023-08-14T04:14:30.083Z,400.00
2023-08-14T04:15:30.109Z,428.00
2023-08-14T04:16:30.161Z,460.00
2023-08-14T04:17:30.157Z,500.00
2023-08-14T04:18:30.186Z,536.00
2023-08-14T04:19:30.208Z,576.00
2023-08-14T04:20:30.233Z,616.00
2023-08-14T04:21:30.263Z,652.00
2023-08-14T04:22:30.344Z,684.00
2023-08-14T04:23:30.312Z,728.00
2023-08-14T04:24:30.338Z,760.00
2023-08-14T04:25:30.368Z,800.00
2023-08-14T04:26:30.388Z,844.00
2023-08-14T04:27:30.418Z,888.00
2023-08-14T04:28:30.439Z,924.00
2023-08-14T04:29:30.482Z,956.00
2023-08-14T04:30:30.491Z,988.00
2023-08-14T04:31:30.570Z,1024.00
2023-08-14T04:32:30.559Z,1064.00
2023-08-14T04:33:30.566Z,1108.00
2023-08-14T04:34:30.593Z,1152.00
2023-08-14T04:35:30.640Z,1200.00
2023-08-14T04:36:30.645Z,1244.00
2023-08-14T04:37:30.684Z,1292.00
2023-08-14T04:38:30.701Z,1332.00
2023-08-14T04:39:30.728Z,1400.00
2023-08-14T04:40:30.746Z,1468.00
2023-08-14T04:41:30.773Z,1520.00
2023-08-14T04:42:30.797Z,1580.00
2023-08-14T04:43:30.824Z,1668.00
2023-08-14T04:44:30.849Z,1744.00
2023-08-14T04:45:30.875Z,1820.00
2023-08-14T04:46:33.930Z,1888.00
2023-08-14T04:47:31.015Z,1952.00
2023-08-14T04:48:30.952Z,2028.00
2023-08-14T04:49:31.000Z,2088.00
2023-08-14T04:50:31.002Z,2164.00
2023-08-14T04:51:31.031Z,2216.00
2023-08-14T04:52:31.055Z,2252.00
2023-08-14T04:53:31.089Z,2288.00
2023-08-14T04:54:31.109Z,2340.00
2023-08-14T04:55:31.130Z,2496.00
2023-08-14T04:56:31.159Z,2504.00
2023-08-14T04:57:31.182Z,2524.00
2023-08-14T04:58:31.210Z,2576.00
2023-08-14T04:59:31.236Z,2524.00
2023-08-14T05:00:31.279Z,2616.00
2023-08-14T05:01:31.324Z,2600.00
2023-08-14T05:02:31.329Z,2664.00
2023-08-14T05:03:31.337Z,2936.00
2023-08-14T05:04:31.392Z,3276.00
2023-08-14T05:05:31.397Z,3168.00
2023-08-14T05:06:31.427Z,2896.00
2023-08-14T05:07:31.446Z,2948.00
2023-08-14T05:08:31.470Z,3128.00
2023-08-14T05:09:31.512Z,3244.00
2023-08-14T05:10:31.533Z,3160.00
2023-08-14T05:11:31.550Z,3208.00
2023-08-14T05:12:31.583Z,3232.00
2023-08-14T05:13:31.618Z,3312.00
2023-08-14T05:14:31.629Z,3360.00
2023-08-14T05:15:31.652Z,3496.00
2023-08-14T05:16:31.775Z,3592.00
2023-08-14T05:17:31.754Z,3564.00
2023-08-14T05:18:31.735Z,3496.00
2023-08-14T05:19:31.765Z,3428.00
2023-08-14T05:20:31.788Z,3400.00
2023-08-14T05:21:31.813Z,3528.00
2023-08-14T05:22:31.843Z,3628.00
2023-08-14T05:23:31.869Z,3580.00
2023-08-14T05:24:31.893Z,3528.00
2023-08-14T05:25:31.925Z,3492.00
2023-08-14T05:26:31.956Z,3488.00
2023-08-14T05:27:31.972Z,3492.00
2023-08-14T05:28:32.080Z,3520.00
2023-08-14T05:29:32.027Z,3556.00
2023-08-14T05:30:32.052Z,3588.00
2023-08-14T05:31:32.101Z,3732.00
2023-08-14T05:32:32.153Z,3648.00
2023-08-14T05:33:32.140Z,3740.00
2023-08-14T05:34:32.158Z,3708.00
2023-08-14T05:35:32.184Z,3560.00
2023-08-14T05:36:32.214Z,3568.00
2023-08-14T05:37:32.237Z,3604.00
2023-08-14T05:38:32.264Z,3904.00
2023-08-14T05:39:32.294Z,4040.00
2023-08-14T05:40:32.323Z,4072.00
2023-08-14T05:41:32.348Z,3780.00
2023-08-14T05:42:32.384Z,3648.00
2023-08-14T05:43:32.402Z,3716.00
2023-08-14T05:44:32.428Z,3916.00
2023-08-14T05:45:32.516Z,4048.00
2023-08-14T05:46:32.478Z,4216.00
2023-08-14T05:47:32.525Z,4348.00
2023-08-14T05:48:32.535Z,5016.00
2023-08-14T05:49:32.566Z,5268.00
2023-08-14T05:50:32.589Z,4608.00
2023-08-14T05:51:32.614Z,4572.00
2023-08-14T05:52:32.652Z,4804.00
2023-08-14T05:53:39.846Z,5028.00
2023-08-14T05:55:37.165Z,5440.00
2023-08-14T05:56:36.717Z,5592.00
2023-08-14T05:58:40.734Z,6028.00
2023-08-14T05:59:40.741Z,6044.00
2023-08-14T06:01:45.246Z,5916.00
2023-08-14T06:02:44.841Z,5904.00
2023-08-14T06:04:48.820Z,5420.00
2023-08-14T06:05:48.862Z,5524.00
2023-08-14T06:07:53.335Z,6832.00
2023-08-14T06:08:52.875Z,7428.00
2023-08-14T06:10:56.911Z,9808.00
2023-08-14T06:11:56.930Z,14064.00
2023-08-14T06:13:50.428Z,14896.00
2023-08-14T06:14:52.009Z,17248.00
2023-08-14T06:16:53.981Z,17792.00
2023-08-14T06:17:54.010Z,16960.00
2023-08-14T06:19:58.444Z,14888.00
2023-08-14T06:20:57.984Z,14840.00
2023-08-14T06:23:02.009Z,17632.00
2023-08-14T06:24:02.031Z,20224.00
2023-08-14T06:26:06.533Z,15452.00
2023-08-14T06:27:06.072Z,17376.00
2023-08-14T06:29:10.200Z,18752.00
2023-08-14T06:30:10.151Z,19712.00
2023-08-14T06:32:14.634Z,19360.00
2023-08-14T06:33:15.622Z,20192.00
2023-08-14T06:35:18.198Z,19744.00
2023-08-14T06:36:18.227Z,18496.00
2023-08-14T06:38:22.721Z,18624.00
2023-08-14T06:39:22.276Z,21312.00
2023-08-14T06:41:26.340Z,21856.00
2023-08-14T06:42:26.331Z,22176.00
2023-08-14T06:44:30.837Z,19456.00
2023-08-14T06:45:30.380Z,22272.00
2023-08-14T06:47:34.428Z,20672.00
2023-08-14T06:48:34.444Z,19776.00
2023-08-14T06:50:38.944Z,14600.00
2023-08-14T06:51:38.485Z,19072.00
2023-08-14T06:53:31.461Z,15804.00
2023-08-14T06:54:31.482Z,17248.00
2023-08-14T06:57:35.514Z,14560.00
2023-08-14T06:59:39.580Z,13208.00
2023-08-14T07:00:39.680Z,11972.00
2023-08-14T07:02:44.148Z,16768.00
2023-08-14T07:03:43.698Z,18272.00
2023-08-14T07:05:47.664Z,19328.00
2023-08-14T07:06:47.689Z,18784.00
2023-08-14T07:08:52.190Z,13136.00
2023-08-14T07:09:51.738Z,11204.00
2023-08-14T07:11:55.776Z,11208.00
2023-08-14T07:12:55.848Z,11328.00
2023-08-14T07:15:00.401Z,11284.00
2023-08-14T07:15:59.888Z,11452.00
2023-08-14T07:18:03.916Z,11576.00
2023-08-14T07:19:03.911Z,11516.00
2023-08-14T07:21:08.414Z,11620.00
2023-08-14T07:22:07.960Z,11616.00
2023-08-14T07:24:00.911Z,11612.00
2023-08-14T07:25:00.937Z,11472.00
2023-08-14T07:27:05.440Z,11360.00
2023-08-14T07:28:05.003Z,11196.00
2023-08-14T07:30:09.030Z,10820.00
2023-08-14T07:31:09.097Z,10832.00
2023-08-14T07:33:13.553Z,10736.00
2023-08-14T07:34:13.109Z,10696.00
2023-08-14T07:36:17.163Z,10732.00
2023-08-14T07:37:17.160Z,10908.00
2023-08-14T07:39:21.689Z,10912.00
2023-08-14T07:40:21.219Z,11140.00
2023-08-14T07:42:25.240Z,11708.00
2023-08-14T07:43:25.264Z,11804.00
2023-08-14T07:45:29.818Z,11772.00
2023-08-14T07:46:29.340Z,11664.00
2023-08-14T07:48:33.364Z,11804.00
2023-08-14T07:49:33.385Z,11620.00
2023-08-14T07:51:37.894Z,11528.00
2023-08-14T07:52:37.442Z,11564.00
2023-08-14T07:54:41.476Z,11988.00
2023-08-14T07:55:41.494Z,12024.00
2023-08-14T07:58:38.976Z,12404.00
2023-08-14T07:59:38.671Z,12676.00
2023-08-14T08:01:42.784Z,13072.00
2023-08-14T08:02:42.744Z,13164.00
2023-08-14T08:04:47.215Z,13248.00
2023-08-14T08:05:46.785Z,13236.00
2023-08-14T08:07:52.576Z,13284.00
2023-08-14T08:08:52.631Z,13256.00
2023-08-14T08:10:55.569Z,13184.00
2023-08-14T08:11:56.408Z,13024.00
2023-08-14T08:13:47.829Z,12960.00
2023-08-14T08:14:47.852Z,12904.00
2023-08-14T08:16:52.359Z,12692.00
2023-08-14T08:17:51.979Z,12532.00
2023-08-14T08:19:55.982Z,12288.00
2023-08-14T08:20:55.965Z,11988.00
2023-08-14T08:23:00.474Z,11576.00
2023-08-14T08:24:00.026Z,11280.00
2023-08-14T08:26:04.048Z,10740.00
2023-08-14T08:27:04.070Z,10636.00
2023-08-14T08:29:08.575Z,10392.00
2023-08-14T08:30:08.130Z,10228.00
2023-08-14T08:32:12.185Z,9660.00
2023-08-14T08:33:12.231Z,9392.00
2023-08-14T08:35:16.707Z,8928.00
2023-08-14T08:36:16.256Z,8800.00
2023-08-14T08:38:20.294Z,8656.00
2023-08-14T08:39:20.308Z,8592.00
2023-08-14T08:41:24.805Z,8868.00
2023-08-14T08:42:24.423Z,9052.00
2023-08-14T08:44:28.421Z,9784.00
2023-08-14T08:45:28.441Z,10100.00
2023-08-14T08:47:35.981Z,9952.00
2023-08-14T08:48:32.495Z,9588.00
2023-08-14T08:50:36.523Z,9516.00
2023-08-14T08:51:36.546Z,9836.00
2023-08-14T08:53:30.057Z,10672.00
2023-08-14T08:54:29.526Z,11096.00
2023-08-14T08:56:33.545Z,11952.00
2023-08-14T08:57:37.143Z,12396.00
2023-08-14T09:00:42.064Z,12360.00
2023-08-14T09:01:41.643Z,11552.00
2023-08-14T09:03:34.709Z,10096.00
2023-08-14T09:04:34.725Z,9680.00
2023-08-14T09:06:39.122Z,9660.00
2023-08-14T09:07:38.668Z,9316.00
2023-08-14T09:09:42.686Z,8444.00
2023-08-14T09:10:42.710Z,8856.00
2023-08-14T09:12:47.217Z,9052.00
2023-08-14T09:13:46.771Z,8400.00
2023-08-14T09:15:50.793Z,8192.00
2023-08-14T09:16:52.884Z,7488.00
2023-08-14T09:18:55.349Z,6560.00
2023-08-14T09:19:54.877Z,6372.00
2023-08-14T09:21:58.906Z,6396.00
2023-08-14T09:22:58.962Z,6488.00
2023-08-14T09:25:03.450Z,6232.00
2023-08-14T09:26:02.989Z,5924.00
2023-08-14T09:28:07.027Z,5840.00
2023-08-14T09:29:07.047Z,5688.00
2023-08-14T09:31:11.562Z,5548.00
2023-08-14T09:32:11.221Z,5932.00
2023-08-14T09:34:04.070Z,6360.00
2023-08-14T09:35:04.097Z,6860.00
2023-08-14T09:37:08.617Z,7044.00
2023-08-14T09:38:08.120Z,7128.00
2023-08-14T09:40:12.637Z,6640.00
2023-08-14T09:41:12.712Z,6464.00
2023-08-14T09:42:12.693Z,6196.00
2023-08-14T09:43:12.729Z,6236.00
2023-08-14T09:44:12.757Z,5924.00
2023-08-14T09:45:12.790Z,5276.00
2023-08-14T09:46:12.891Z,4636.00
2023-08-14T09:47:12.925Z,4144.00
2023-08-14T09:48:13.003Z,3788.00
2023-08-14T09:49:12.935Z,3564.00
2023-08-14T09:50:12.949Z,3416.00
2023-08-14T09:51:12.993Z,3328.00
2023-08-14T09:52:13.016Z,3272.00
2023-08-14T09:53:13.048Z,3224.00
2023-08-14T09:54:13.080Z,3196.00
2023-08-14T09:55:13.110Z,3164.00
2023-08-14T09:56:13.146Z,3144.00
2023-08-14T09:58:13.205Z,3112.00
2023-08-14T09:59:13.236Z,3096.00
2023-08-14T10:00:13.271Z,3092.00
2023-08-14T10:01:13.380Z,3092.00
2023-08-14T10:02:13.391Z,3112.00
2023-08-14T10:03:13.437Z,3140.00
2023-08-14T10:04:13.402Z,3172.00
2023-08-14T10:05:13.439Z,3216.00
2023-08-14T10:06:13.458Z,3256.00
2023-08-14T10:07:13.492Z,3468.00
2023-08-14T10:08:13.526Z,3864.00
2023-08-14T10:09:13.553Z,3700.00
2023-08-14T10:10:13.585Z,3948.00
2023-08-14T10:12:13.648Z,3556.00
2023-08-14T10:13:13.698Z,3404.00
2023-08-14T10:14:13.731Z,3400.00
2023-08-14T10:15:13.741Z,3404.00
2023-08-14T10:16:13.791Z,3480.00
2023-08-14T10:17:13.834Z,3488.00
2023-08-14T10:18:13.934Z,3380.00
2023-08-14T10:19:13.870Z,3304.00
2023-08-14T10:20:14.735Z,3260.00
2023-08-14T10:21:13.941Z,3232.00
2023-08-14T10:22:13.966Z,3216.00
2023-08-14T10:23:14.000Z,3208.00
2023-08-14T10:24:14.028Z,3188.00
2023-08-14T10:25:14.060Z,3160.00
2023-08-14T10:26:14.093Z,3148.00
2023-08-14T10:27:14.135Z,3152.00
2023-08-14T10:28:14.155Z,3152.00
2023-08-14T10:29:14.191Z,3156.00
2023-08-14T10:30:14.231Z,3132.00
2023-08-14T10:31:14.298Z,3136.00
2023-08-14T10:32:14.285Z,3108.00
2023-08-14T10:33:14.403Z,3100.00
2023-08-14T10:34:14.345Z,3064.00
2023-08-14T10:35:14.383Z,3036.00
2023-08-14T10:36:14.411Z,3032.00
2023-08-14T10:37:14.528Z,3032.00
2023-08-14T10:40:14.544Z,3068.00
2023-08-14T10:41:14.588Z,3064.00
2023-08-14T10:42:14.606Z,3056.00
2023-08-14T10:43:14.634Z,3040.00
2023-08-14T10:44:14.667Z,3024.00
2023-08-14T10:45:14.696Z,3020.00
2023-08-14T10:46:14.785Z,3008.00
2023-08-14T10:47:14.761Z,3012.00
2023-08-14T10:48:14.799Z,3012.00
2023-08-14T10:49:14.845Z,3016.00
2023-08-14T10:50:14.852Z,3016.00
2023-08-14T10:51:14.892Z,3020.00
2023-08-14T10:52:14.919Z,3024.00
2023-08-14T10:53:14.963Z,3020.00
2023-08-14T10:54:15.007Z,3028.00
2023-08-14T10:55:15.024Z,3040.00
2023-08-14T10:56:15.043Z,3044.00
2023-08-14T10:57:15.077Z,3040.00
2023-08-14T10:58:15.109Z,3040.00
2023-08-14T10:59:15.146Z,3052.00
2023-08-14T11:00:15.175Z,3080.00
2023-08-14T11:01:15.211Z,3088.00
2023-08-14T11:02:15.234Z,3088.00
2023-08-14T11:03:15.264Z,3092.00
2023-08-14T11:04:15.305Z,3072.00
2023-08-14T11:05:15.383Z,3076.00
2023-08-14T11:06:15.434Z,3096.00
2023-08-14T11:07:15.397Z,3104.00
2023-08-14T11:08:15.425Z,3108.00
2023-08-14T11:09:15.464Z,3112.00
2023-08-14T11:10:15.504Z,3120.00
2023-08-14T11:11:15.523Z,3116.00
2023-08-14T11:12:15.560Z,3104.00
2023-08-14T11:13:15.587Z,3088.00
2023-08-14T11:14:15.620Z,3068.00
2023-08-14T11:15:15.668Z,3056.00
2023-08-14T11:16:15.701Z,3056.00
2023-08-14T11:17:15.712Z,3048.00
2023-08-14T11:18:15.749Z,3032.00
2023-08-14T11:19:15.777Z,3024.00
2023-08-14T11:20:15.808Z,3020.00
2023-08-14T11:21:30.627Z,3008.00
2023-08-14T11:22:15.945Z,3004.00
2023-08-14T11:23:15.904Z,3004.00
2023-08-14T11:24:15.937Z,3008.00
2023-08-14T11:25:17.624Z,3004.00
2023-08-14T11:26:16.003Z,2992.00
2023-08-14T11:27:16.034Z,2988.00
2023-08-14T11:28:16.064Z,3000.00
2023-08-14T11:29:16.108Z,3016.00
2023-08-14T11:30:18.642Z,3024.00
2023-08-14T11:31:17.711Z,3028.00
2023-08-14T11:32:16.298Z,3020.00
2023-08-14T11:33:16.276Z,3024.00
2023-08-14T11:34:16.255Z,3036.00
2023-08-14T11:35:16.297Z,3052.00
2023-08-14T11:36:16.333Z,3072.00
2023-08-14T11:37:18.088Z,3084.00
2023-08-14T11:38:16.394Z,3108.00
2023-08-14T11:39:16.422Z,3116.00
2023-08-14T11:40:16.455Z,3116.00
2023-08-14T11:41:16.494Z,3116.00
2023-08-14T11:42:17.059Z,3180.00
2023-08-14T11:43:16.550Z,3224.00
2023-08-14T11:44:16.580Z,3204.00
2023-08-14T11:45:16.649Z,3168.00
2023-08-14T11:46:16.646Z,3128.00
2023-08-14T11:47:16.721Z,3104.00
2023-08-14T11:48:16.765Z,3088.00
2023-08-14T11:49:16.743Z,3100.00
2023-08-14T11:50:16.788Z,3088.00
2023-08-14T11:51:16.820Z,3100.00
2023-08-14T11:52:17.173Z,3104.00
2023-08-14T11:53:16.877Z,3108.00
2023-08-14T11:54:16.904Z,3112.00
2023-08-14T11:55:17.027Z,3116.00
2023-08-14T11:56:16.966Z,3084.00
2023-08-14T11:57:17.026Z,3088.00
2023-08-14T11:58:17.031Z,3080.00
2023-08-14T11:59:17.064Z,3112.00
2023-08-14T12:00:23.839Z,3156.00
2023-08-14T12:01:17.162Z,3096.00
2023-08-14T12:02:17.525Z,3036.00
2023-08-14T12:03:17.290Z,3012.00
2023-08-14T12:04:17.229Z,3168.00
2023-08-14T12:05:17.269Z,3220.00
2023-08-14T12:06:17.301Z,3172.00
2023-08-14T12:07:17.324Z,3140.00
2023-08-14T12:08:17.365Z,3116.00
2023-08-14T12:09:17.394Z,3148.00
2023-08-14T12:10:17.434Z,3196.00
2023-08-14T12:11:17.473Z,3280.00
2023-08-14T12:12:17.921Z,3380.00
2023-08-14T12:13:17.540Z,3404.00
2023-08-14T12:14:17.559Z,3388.00
2023-08-14T12:15:17.600Z,3456.00
2023-08-14T12:16:19.639Z,3456.00
2023-08-14T12:18:18.700Z,3600.00
2023-08-14T12:19:17.724Z,3692.00
2023-08-14T12:20:17.757Z,3684.00
2023-08-14T12:21:17.826Z,3776.00
2023-08-14T12:22:17.825Z,4256.00
2023-08-14T12:23:17.861Z,4940.00
2023-08-14T12:24:17.887Z,5204.00
2023-08-14T12:25:17.920Z,6288.00
2023-08-14T12:26:17.957Z,7208.00
2023-08-14T12:27:18.191Z,7708.00
2023-08-14T12:28:18.021Z,8332.00
2023-08-14T12:29:18.135Z,7896.00
2023-08-14T12:30:18.088Z,8124.00
2023-08-14T12:31:18.131Z,9256.00
2023-08-14T12:32:18.148Z,9760.00
2023-08-14T12:33:18.189Z,10084.00
2023-08-14T12:34:18.215Z,10168.00
2023-08-14T12:35:18.251Z,9980.00
2023-08-14T12:36:18.287Z,9960.00
2023-08-14T12:37:18.630Z,10456.00
2023-08-14T12:38:18.356Z,10380.00
2023-08-14T12:39:18.385Z,10124.00
2023-08-14T12:40:18.423Z,9768.00
2023-08-14T12:41:18.473Z,9552.00
2023-08-14T12:42:18.488Z,9092.00
2023-08-14T12:43:19.760Z,9164.00
2023-08-14T12:44:18.575Z,9928.00
2023-08-14T12:45:18.606Z,10076.00
2023-08-14T12:46:18.710Z,9632.00
2023-08-14T12:47:19.154Z,9032.00
2023-08-14T12:48:18.729Z,8356.00
2023-08-14T12:49:18.724Z,7524.00
2023-08-14T12:50:18.754Z,6924.00
2023-08-14T12:51:18.793Z,6556.00
2023-08-14T12:52:18.827Z,6508.00
2023-08-14T12:53:18.874Z,6248.00
2023-08-14T12:54:18.907Z,7300.00
2023-08-14T12:55:19.548Z,6128.00
2023-08-14T12:56:19.333Z,5276.00
2023-08-14T12:57:18.996Z,5328.00
2023-08-14T12:58:19.035Z,5228.00
2023-08-14T12:59:24.274Z,5392.00
2023-08-14T13:00:19.094Z,4992.00
2023-08-14T13:02:24.633Z,4760.00
2023-08-14T13:03:19.196Z,4940.00
2023-08-14T13:04:19.232Z,5096.00
2023-08-14T13:05:19.281Z,5148.00
2023-08-14T13:06:20.438Z,5112.00
2023-08-14T13:07:19.549Z,4984.00
2023-08-14T13:08:19.367Z,5148.00
2023-08-14T13:09:19.402Z,5052.00
2023-08-14T13:10:19.436Z,4928.00
2023-08-14T13:11:19.489Z,4900.00
2023-08-14T13:12:19.502Z,4840.00
2023-08-14T13:13:19.546Z,4804.00
2023-08-14T13:14:19.568Z,4544.00
2023-08-14T13:15:19.602Z,4304.00
2023-08-14T13:16:19.667Z,4344.00
2023-08-14T13:17:20.159Z,4460.00
2023-08-14T13:18:19.709Z,4404.00
2023-08-14T13:19:19.744Z,4436.00
2023-08-14T13:20:19.776Z,4312.00
2023-08-14T13:21:19.808Z,4236.00
2023-08-14T13:22:19.840Z,4204.00
2023-08-14T13:23:19.908Z,4136.00
2023-08-14T13:24:19.907Z,4092.00
2023-08-14T13:25:19.945Z,4072.00
2023-08-14T13:26:26.754Z,4236.00
2023-08-14T13:27:20.228Z,4536.00
2023-08-14T13:28:20.086Z,4504.00
2023-08-14T13:29:20.083Z,4224.00
2023-08-14T13:30:20.830Z,4148.00
2023-08-14T13:31:20.169Z,4556.00
2023-08-14T13:32:20.798Z,4436.00
2023-08-14T13:33:20.223Z,4500.00
2023-08-14T13:34:20.257Z,4692.00
2023-08-14T13:35:20.286Z,4692.00
2023-08-14T13:36:20.330Z,4476.00
2023-08-14T13:37:20.356Z,4200.00
2023-08-14T13:38:20.386Z,3996.00
2023-08-14T13:39:20.420Z,4280.00
2023-08-14T13:40:20.455Z,4212.00
2023-08-14T13:41:20.483Z,4436.00
2023-08-14T13:42:20.722Z,4656.00
2023-08-14T13:43:20.555Z,4240.00
2023-08-14T13:44:20.589Z,4156.00
2023-08-14T13:45:20.652Z,4252.00
2023-08-14T13:46:20.751Z,4476.00
2023-08-14T13:47:20.705Z,4240.00
2023-08-14T13:48:20.759Z,4312.00
2023-08-14T13:49:20.770Z,4264.00
2023-08-14T13:50:31.902Z,4256.00
2023-08-14T13:51:20.827Z,4404.00